كركوك, العراق

09:19 AM AST on لبراêر 11, 2016 (GMT +0300)
Erbeel | | Change Station
CLOSE
Current Station
Airport
Location: Erbeel,
Elevation: 1378 ft
Nearby Weather Stations

Elev 1378 ft 36.15 °N, 44.00 °E | Updated 19 minutes ago

Clear
صافية
45 °F
Feels Like 45 °F
N
0
ريح متغير ريح from شمال

هذا اليوم
High -- | Low -- °F
--% Chance of Precip.
Yesterday
High -- | Low -- °F
Precip. -- في
الضغط 30.18 في
وضوح الرؤية 5.0 أميال
سحابات
نقطة الندى 32 °F
الرطوبة 61%
Rainfall 0.00 في
عمق الثلج Not available.
6:53 AM 5:39 PM
الهلال الأول, 9% visible
METAR ORER 110600Z 00000KT 8000 NSC 07/00 Q1022 NOSIG
الضغط 30.18 في
وضوح الرؤية 5.0 أميال
سحابات
نقطة الندى 32 °F
الرطوبة 61%
Rainfall 0.00 في
عمق الثلج Not available.
6:53 AM 5:39 PM
الهلال الأول, 9% visible
METAR ORER 110600Z 00000KT 8000 NSC 07/00 Q1022 NOSIG

10-Day Weather Forecast

No radar image for this location.
×

Almanac

علم الفلك

Feb. 11, 2016 Rise Set
Actual Time
Civil Twilight
Nautical Twilight
Astronomical Twilight
قمر
Length Of Visible Light
طول الیوم
Tomorrow will be .
, % of the Moon is Illuminated

Today's Extremes

Country Highs Country Lows

Community

WunderPhotos

Upload Photos

1,892,030 photos uploaded!

WunderBlog® & News

Nearby

جودة الهواء

  جودة الهواء AQ Index Pollutant
Not available.

عمق الثلج

Station Depth Elevation

Earthquake Activity

City Distance Mag. Time & Date
Minimum magnitude displayed is 2.5.

Coastal Water Temperatures

مكان درجات الحرارة

Stations

Nearby Weather Stations

Station Location الحرارة رياح باردة نقطة الندى الرطوبة ريح Precip. Elev تحديث Type